Time;durP1;ratioP1;P1;durP2;ratioP2;P2;SDS_P1;SDS_P2;PMS_P1;PMS_P2;Temp;Humidity;BMP_temperature;BMP_pressure;BME280_temperature;BME280_humidity;BME280_pressure;Samples;Min_cycle;Max_cycle;Signal;HPM_P1;HPM_P2
2023/07/21 00:01:07;;;;;;;1999.90;999.90;;;16.60;96.60;;;;;;5093482;28;20111;-71
2023/07/21 00:03:33;;;;;;;1999.90;999.90;;;16.50;97.00;;;;;;5085337;28;20451;-71
2023/07/21 00:06:09;;;;;;;1999.90;999.90;;;16.50;96.30;;;;;;5075248;28;20039;-70
2023/07/21 00:08:35;;;;;;;1999.90;999.90;;;16.50;96.70;;;;;;5056892;28;20098;-70
2023/07/21 00:11:01;;;;;;;1999.90;999.90;;;16.40;97.10;;;;;;5056228;28;20484;-71
2023/07/21 00:13:27;;;;;;;1999.90;999.90;;;16.40;97.30;;;;;;5074972;28;20039;-71
2023/07/21 00:15:54;;;;;;;1999.90;999.90;;;16.30;97.30;;;;;;5074757;28;20390;-70
2023/07/21 00:18:21;;;;;;;1999.90;999.90;;;16.30;97.30;;;;;;5074916;28;20116;-70
2023/07/21 00:20:47;;;;;;;1999.90;999.90;;;16.20;97.30;;;;;;5074894;28;20132;-75
2023/07/21 00:23:13;;;;;;;1999.90;999.90;;;16.20;97.30;;;;;;5074610;28;20025;-73
2023/07/21 00:25:39;;;;;;;1999.90;999.90;;;16.10;97.00;;;;;;5075064;28;20029;-74
2023/07/21 00:28:05;;;;;;;1999.90;999.90;;;16.10;97.80;;;;;;5056385;28;20040;-70
2023/07/21 00:30:31;;;;;;;1999.90;999.90;;;16.00;97.60;;;;;;5074990;28;20033;-70
2023/07/21 00:32:57;;;;;;;1999.90;999.90;;;16.00;97.90;;;;;;5074239;28;20037;-70
2023/07/21 00:35:23;;;;;;;1999.90;999.90;;;15.90;97.90;;;;;;5074552;28;20514;-71
2023/07/21 00:37:48;;;;;;;1999.90;999.90;;;15.90;98.20;;;;;;5074795;28;20041;-70
2023/07/21 00:40:20;;;;;;;1999.90;999.90;;;15.80;97.90;;;;;;5074669;28;20043;-72
2023/07/21 00:42:46;;;;;;;1999.90;999.90;;;15.80;98.00;;;;;;5073945;28;20041;-70
2023/07/21 00:45:15;;;;;;;1999.90;999.90;;;15.80;98.20;;;;;;5102171;22;20044;-73
2023/07/21 00:47:41;;;;;;;1999.90;999.90;;;15.80;98.60;;;;;;5094551;28;20048;-73
2023/07/21 00:50:09;;;;;;;1999.90;999.90;;;15.70;98.40;;;;;;5094266;28;20037;-73
2023/07/21 00:52:36;;;;;;;1999.90;999.90;;;15.60;99.00;;;;;;5093518;28;20836;-73
2023/07/21 00:55:02;;;;;;;1999.90;999.90;;;15.60;99.10;;;;;;5094059;28;20037;-73
2023/07/21 00:57:28;;;;;;;1999.90;999.90;;;15.50;99.20;;;;;;5092958;28;20072;-73
2023/07/21 00:59:54;;;;;;;1999.90;999.90;;;15.50;99.70;;;;;;5094025;28;20044;-73
2023/07/21 01:02:21;;;;;;;1999.90;999.90;;;15.40;99.30;;;;;;5093207;28;20029;-73
2023/07/21 01:04:46;;;;;;;1999.90;999.90;;;15.30;99.80;;;;;;5093986;28;20449;-73
2023/07/21 01:07:13;;;;;;;1999.90;999.90;;;15.30;99.90;;;;;;5094128;28;20032;-72
2023/07/21 01:09:40;;;;;;;1999.90;999.90;;;15.40;99.90;;;;;;5074808;28;20154;-72
2023/07/21 01:12:06;;;;;;;1999.90;999.90;;;15.30;99.90;;;;;;5093022;28;20517;-73
2023/07/21 01:14:34;;;;;;;1999.90;999.90;;;15.30;99.90;;;;;;5075686;28;20032;-73
2023/07/21 01:17:00;;;;;;;1999.90;999.90;;;15.10;99.90;;;;;;5075709;28;20039;-73
2023/07/21 01:19:28;;;;;;;1999.90;999.90;;;15.10;99.90;;;;;;5093355;28;20174;-73
2023/07/21 01:22:05;;;;;;;1999.90;999.90;;;15.10;99.90;;;;;;5075025;28;20029;-73
2023/07/21 01:24:59;;;;;;;1999.90;999.90;;;15.10;99.90;;;;;;5093772;28;20044;-73
2023/07/21 01:27:25;;;;;;;1999.90;999.90;;;15.00;99.90;;;;;;5075196;28;20032;-73
2023/07/21 01:29:53;;;;;;;1999.90;999.90;;;15.10;99.90;;;;;;5067604;28;20045;-73
2023/07/21 01:32:21;;;;;;;1999.90;999.90;;;15.00;99.90;;;;;;5092707;28;20508;-73
2023/07/21 01:34:47;;;;;;;1999.90;999.90;;;15.00;99.90;;;;;;5093441;28;20036;-73
2023/07/21 01:37:14;;;;;;;1999.90;999.90;;;15.00;99.90;;;;;;5091129;28;20033;-73
2023/07/21 01:39:41;;;;;;;1999.90;999.90;;;15.00;99.90;;;;;;5073488;28;20111;-73
2023/07/21 01:42:07;;;;;;;1999.90;999.90;;;15.00;99.90;;;;;;5072809;28;20082;-73
2023/07/21 01:44:34;;;;;;;1999.90;999.90;;;15.10;99.90;;;;;;5072866;28;20065;-73
2023/07/21 01:46:59;;;;;;;1999.90;999.90;;;15.10;99.90;;;;;;5073655;28;20520;-73
2023/07/21 01:49:25;;;;;;;1999.90;999.90;;;15.20;99.90;;;;;;5073465;28;20033;-73
2023/07/21 01:51:57;;;;;;;1999.90;999.90;;;15.10;99.90;;;;;;5072679;28;20033;-73
2023/07/21 01:54:31;;;;;;;1999.90;999.90;;;15.10;99.90;;;;;;5073671;28;20067;-73
2023/07/21 01:57:02;;;;;;;1999.90;999.90;;;15.10;99.90;;;;;;5077953;28;20036;-73
2023/07/21 01:59:27;;;;;;;1999.90;999.90;;;15.10;99.90;;;;;;5075280;28;20041;-73
2023/07/21 02:01:55;;;;;;;1999.90;999.90;;;15.20;99.90;;;;;;5091213;28;20028;-73
2023/07/21 02:04:21;;;;;;;1999.90;999.90;;;15.20;99.90;;;;;;5093534;28;20029;-73
2023/07/21 02:06:49;;;;;;;1999.90;999.90;;;15.20;99.90;;;;;;5093112;28;20037;-73
2023/07/21 02:09:15;;;;;;;1999.90;999.90;;;15.20;99.90;;;;;;5094137;28;20060;-73
2023/07/21 02:11:43;;;;;;;1999.90;999.90;;;15.30;99.90;;;;;;5096267;28;20056;-73
2023/07/21 02:14:08;;;;;;;1999.90;999.90;;;15.40;99.90;;;;;;5096564;28;20394;-73
2023/07/21 02:16:34;;;;;;;1999.90;999.90;;;15.40;99.90;;;;;;5094578;28;20036;-73
2023/07/21 02:19:00;;;;;;;1999.90;999.90;;;15.40;99.90;;;;;;5076263;28;20479;-73
2023/07/21 02:21:25;;;;;;;1999.90;999.90;;;15.40;99.90;;;;;;5075895;28;20029;-73
2023/07/21 02:23:51;;;;;;;1999.90;999.90;;;15.40;99.90;;;;;;5076447;28;20087;-73
2023/07/21 02:26:17;;;;;;;1999.90;999.90;;;15.40;99.90;;;;;;5076173;28;20040;-73
2023/07/21 02:28:42;;;;;;;1999.90;999.90;;;15.30;99.90;;;;;;5058030;28;20131;-73
2023/07/21 02:31:09;;;;;;;1999.90;999.90;;;15.30;99.90;;;;;;5075274;28;20029;-73
2023/07/21 02:33:35;;;;;;;1999.90;999.90;;;15.30;99.90;;;;;;5076308;28;20040;-73
2023/07/21 02:36:03;;;;;;;1999.90;999.90;;;15.20;99.90;;;;;;5057611;28;20068;-73
2023/07/21 02:38:29;;;;;;;1999.90;999.90;;;15.20;99.90;;;;;;5057807;28;20103;-73
2023/07/21 02:40:55;;;;;;;1999.90;999.90;;;15.20;99.90;;;;;;5075336;28;20111;-73
2023/07/21 02:43:23;;;;;;;1999.90;999.90;;;15.20;99.90;;;;;;5076005;28;20486;-73
2023/07/21 02:45:53;;;;;;;1999.90;999.90;;;15.20;99.90;;;;;;5057130;28;20213;-73
2023/07/21 02:48:20;;;;;;;1999.90;999.90;;;15.20;99.90;;;;;;5076093;28;20041;-73
2023/07/21 02:50:50;;;;;;;1999.90;999.90;;;15.20;99.90;;;;;;5075871;28;20528;-73
2023/07/21 02:53:17;;;;;;;1999.90;999.90;;;15.30;99.90;;;;;;5075308;28;20041;-73
2023/07/21 02:55:43;;;;;;;1999.90;999.90;;;15.30;99.90;;;;;;5057903;28;20102;-73
2023/07/21 02:58:11;;;;;;;1999.90;999.90;;;15.30;99.90;;;;;;5075539;28;20044;-73
2023/07/21 03:00:37;;;;;;;1999.90;999.90;;;15.30;99.90;;;;;;5075802;28;20087;-73
2023/07/21 03:03:03;;;;;;;1999.90;999.90;;;15.30;99.90;;;;;;5075211;28;20433;-73
2023/07/21 03:05:29;;;;;;;1999.90;999.90;;;15.30;99.90;;;;;;5057266;28;20540;-73
2023/07/21 03:07:56;;;;;;;1999.90;999.90;;;15.20;99.90;;;;;;5078971;28;20041;-73
2023/07/21 03:10:21;;;;;;;1999.90;999.90;;;15.10;99.90;;;;;;5090806;28;20033;-73
2023/07/21 03:12:47;;;;;;;1999.90;999.90;;;15.10;99.90;;;;;;5075008;28;20064;-72
2023/07/21 03:15:13;;;;;;;1999.90;999.90;;;15.10;99.90;;;;;;5075353;28;20044;-73
2023/07/21 03:17:38;;;;;;;1999.90;999.90;;;15.10;99.90;;;;;;5075405;28;20045;-73
2023/07/21 03:20:11;;;;;;;1999.90;999.90;;;15.10;99.90;;;;;;5075238;28;20029;-73
2023/07/21 03:22:37;;;;;;;1999.90;999.90;;;15.10;99.90;;;;;;5074408;28;20120;-73
2023/07/21 03:25:06;;;;;;;1999.90;999.90;;;15.10;99.90;;;;;;5075300;28;20487;-73
2023/07/21 03:27:35;;;;;;;1999.90;999.90;;;15.10;99.90;;;;;;5056839;28;20041;-73
2023/07/21 03:30:04;;;;;;;1999.90;999.90;;;15.10;99.90;;;;;;5076774;28;20029;-73
2023/07/21 03:32:29;;;;;;;1999.90;999.90;;;15.20;99.90;;;;;;5074524;28;20548;-73
2023/07/21 03:34:55;;;;;;;1999.90;999.90;;;15.20;99.90;;;;;;5075388;28;20036;-73
2023/07/21 03:37:25;;;;;;;1999.90;999.90;;;15.30;99.90;;;;;;5056730;28;20481;-73
2023/07/21 03:39:51;;;;;;;1999.90;999.90;;;15.40;99.90;;;;;;5092859;28;20037;-73
2023/07/21 03:42:18;;;;;;;1999.90;999.90;;;15.40;99.90;;;;;;5094977;28;20478;-73
2023/07/21 03:44:48;;;;;;;1999.90;999.90;;;15.40;99.90;;;;;;5094514;28;20045;-73
2023/07/21 03:47:15;;;;;;;1999.90;999.90;;;15.40;99.90;;;;;;5095554;28;20387;-73
2023/07/21 03:49:41;;;;;;;1999.90;999.90;;;15.50;99.90;;;;;;5078391;28;20048;-73
2023/07/21 03:52:07;;;;;;;1999.90;999.90;;;15.50;99.90;;;;;;5056793;28;20486;-73
2023/07/21 03:54:32;;;;;;;1999.90;999.90;;;15.50;99.90;;;;;;5075858;28;20041;-73
2023/07/21 03:56:58;;;;;;;1999.90;999.90;;;15.50;99.90;;;;;;5057210;28;20040;-73
2023/07/21 03:59:23;;;;;;;1999.90;999.90;;;15.60;99.90;;;;;;5075705;28;20048;-73
2023/07/21 04:01:49;;;;;;;1999.90;999.90;;;15.50;99.90;;;;;;5073195;28;20033;-73
2023/07/21 04:04:15;;;;;;;1999.90;999.90;;;15.60;99.90;;;;;;5056878;28;20032;-73
2023/07/21 04:06:42;;;;;;;1999.90;999.90;;;15.60;99.90;;;;;;5074665;28;20040;-73
2023/07/21 04:09:08;;;;;;;1999.90;999.90;;;15.60;99.90;;;;;;5083689;28;20043;-73
2023/07/21 04:11:34;;;;;;;1999.90;999.90;;;15.60;99.90;;;;;;5093843;28;20029;-73
2023/07/21 04:14:00;;;;;;;1999.90;999.90;;;15.60;99.90;;;;;;5095166;28;20090;-73
2023/07/21 04:16:26;;;;;;;1999.90;999.90;;;15.70;99.90;;;;;;5094935;28;20032;-73
2023/07/21 04:18:52;;;;;;;1999.90;999.90;;;15.70;99.90;;;;;;5094359;28;20041;-73
2023/07/21 04:21:17;;;;;;;1999.90;999.90;;;15.80;99.90;;;;;;5094235;28;20037;-73
2023/07/21 04:23:43;;;;;;;1999.90;999.90;;;15.80;99.90;;;;;;5094599;28;20035;-73
2023/07/21 04:26:11;;;;;;;1999.90;999.90;;;15.90;99.90;;;;;;5076412;28;20124;-73
2023/07/21 04:28:37;;;;;;;1999.90;999.90;;;15.90;99.90;;;;;;5076297;28;20401;-73
2023/07/21 04:31:02;;;;;;;1999.90;999.90;;;15.90;99.90;;;;;;5093959;28;20067;-73
2023/07/21 04:33:28;;;;;;;1999.90;999.90;;;16.00;99.90;;;;;;5076299;28;20101;-73
2023/07/21 04:35:53;;;;;;;1999.90;999.90;;;16.10;99.90;;;;;;5076131;28;20151;-73
2023/07/21 04:38:19;;;;;;;1999.90;999.90;;;16.20;99.90;;;;;;5094675;28;20032;-73
2023/07/21 04:40:44;;;;;;;1999.90;999.90;;;16.30;99.90;;;;;;5094761;28;20048;-73
2023/07/21 04:43:11;;;;;;;1999.90;999.90;;;16.30;99.90;;;;;;5093866;28;20465;-73
2023/07/21 04:45:43;;;;;;;1999.90;999.90;;;16.40;99.90;;;;;;5075524;28;20040;-73
2023/07/21 04:48:09;;;;;;;1999.90;999.90;;;16.50;99.90;;;;;;5094703;28;20640;-74
2023/07/21 04:50:34;;;;;;;1999.90;999.90;;;16.50;99.90;;;;;;5093317;28;20119;-73
2023/07/21 04:53:01;;;;;;;1999.90;999.90;;;16.60;99.90;;;;;;5072628;28;20040;-74
2023/07/21 04:55:27;;;;;;;1999.90;999.90;;;16.60;99.90;;;;;;5069831;28;20072;-76
2023/07/21 04:57:56;;;;;;;1999.90;999.90;;;16.60;99.90;;;;;;5067454;28;20533;-73
2023/07/21 05:00:22;;;;;;;1999.90;999.90;;;16.60;99.90;;;;;;5068058;28;20068;-74
2023/07/21 05:02:50;;;;;;;1999.90;999.90;;;16.60;99.90;;;;;;5076523;28;20424;-74
2023/07/21 05:05:16;;;;;;;1999.90;999.90;;;16.60;99.90;;;;;;5114777;27;20033;-75
2023/07/21 05:07:41;;;;;;;1999.90;999.90;;;16.60;99.90;;;;;;5101986;28;20028;-75
2023/07/21 05:10:07;;;;;;;1999.90;999.90;;;16.70;99.90;;;;;;5075788;28;20394;-75
2023/07/21 05:12:33;;;;;;;1999.90;999.90;;;16.70;99.90;;;;;;5093675;28;20498;-74
2023/07/21 05:14:58;;;;;;;1999.90;999.90;;;16.80;99.90;;;;;;5093904;28;20082;-75
2023/07/21 05:17:27;;;;;;;1999.90;999.90;;;16.90;99.90;;;;;;5094106;28;20037;-76
2023/07/21 05:19:53;;;;;;;1999.90;999.90;;;17.00;99.90;;;;;;5094234;28;20082;-74
2023/07/21 05:22:19;;;;;;;1999.90;999.90;;;17.00;99.90;;;;;;5093474;28;20832;-68
2023/07/21 05:24:44;;;;;;;1999.90;999.90;;;17.10;99.90;;;;;;5094242;28;20037;-69
2023/07/21 05:27:10;;;;;;;1999.90;999.90;;;17.10;99.90;;;;;;5094045;28;20033;-68
2023/07/21 05:29:36;;;;;;;1999.90;999.90;;;17.10;99.90;;;;;;5094088;28;20036;-69
2023/07/21 05:32:03;;;;;;;1999.90;999.90;;;17.10;99.90;;;;;;5093281;28;20115;-68
2023/07/21 05:34:30;;;;;;;1999.90;999.90;;;17.10;99.90;;;;;;5093592;28;20037;-68
2023/07/21 05:36:56;;;;;;;1999.90;999.90;;;17.20;99.90;;;;;;5093684;28;20031;-76
2023/07/21 05:39:22;;;;;;;1999.90;999.90;;;17.30;99.90;;;;;;5075035;28;20048;-80
2023/07/21 05:41:47;;;;;;;1999.90;999.90;;;17.50;99.90;;;;;;5073826;28;20531;-76
2023/07/21 05:44:14;;;;;;;1999.90;999.90;;;17.60;99.80;;;;;;5056192;28;20045;-81
2023/07/21 05:46:40;;;;;;;1999.90;999.90;;;17.70;99.90;;;;;;5059207;28;20496;-73
2023/07/21 05:49:07;;;;;;;1999.90;999.90;;;17.80;99.90;;;;;;5065891;28;20045;-75
2023/07/21 05:51:33;;;;;;;1999.90;999.90;;;17.80;99.90;;;;;;5076489;28;20171;-74
2023/07/21 05:53:59;;;;;;;1999.90;999.90;;;17.90;99.90;;;;;;5077396;28;20505;-74
2023/07/21 05:56:25;;;;;;;1999.90;999.90;;;18.00;99.40;;;;;;5077119;28;20074;-77
2023/07/21 05:58:50;;;;;;;1999.90;999.90;;;18.20;99.10;;;;;;5064902;28;20041;-75
2023/07/21 06:01:16;;;;;;;1999.90;999.90;;;18.30;99.00;;;;;;5096188;28;20051;-75
2023/07/21 06:03:42;;;;;;;1999.90;999.90;;;18.40;98.50;;;;;;5078764;28;20040;-75
2023/07/21 06:06:09;;;;;;;1999.90;999.90;;;18.40;98.40;;;;;;5082325;28;20044;-74
2023/07/21 06:08:35;;;;;;;1999.90;999.90;;;18.50;98.30;;;;;;5089563;28;20041;-75
2023/07/21 06:11:02;;;;;;;1999.90;999.90;;;18.50;98.10;;;;;;5095822;28;20028;-75
2023/07/21 06:13:29;;;;;;;1999.90;999.90;;;18.60;98.10;;;;;;5078899;28;20032;-74
2023/07/21 06:15:56;;;;;;;1999.90;999.90;;;18.90;97.60;;;;;;5097186;28;20490;-74
2023/07/21 06:18:21;;;;;;;1999.90;999.90;;;19.00;97.10;;;;;;5097046;28;20123;-74
2023/07/21 06:20:47;;;;;;;1999.90;999.90;;;19.10;97.80;;;;;;5078401;28;20475;-76
2023/07/21 06:23:13;;;;;;;1999.90;999.90;;;19.20;97.40;;;;;;5078576;28;20137;-77
2023/07/21 06:25:39;;;;;;;1999.90;999.90;;;19.30;96.80;;;;;;5096937;28;20064;-74
2023/07/21 06:28:05;;;;;;;1999.90;999.90;;;19.20;97.50;;;;;;5096800;28;20036;-75
2023/07/21 06:30:31;;;;;;;1999.90;999.90;;;19.30;96.30;;;;;;5097405;28;20028;-72
2023/07/21 06:32:57;;;;;;;1999.90;999.90;;;19.30;95.80;;;;;;5096334;28;20047;-73
2023/07/21 06:35:22;;;;;;;1999.90;999.90;;;19.20;96.30;;;;;;5078203;28;20029;-74
2023/07/21 06:37:48;;;;;;;1999.90;999.90;;;19.20;96.30;;;;;;5096748;28;20056;-75
2023/07/21 06:40:13;;;;;;;1999.90;999.90;;;19.20;96.70;;;;;;5096583;28;20413;-75
2023/07/21 06:42:43;;;;;;;1999.90;999.90;;;19.30;97.10;;;;;;5076263;28;20037;-73
2023/07/21 06:47:47;;;;;;;1999.90;999.90;;;19.40;95.10;;;;;;5074601;28;20053;-74
2023/07/21 06:50:12;;;;;;;1999.90;999.90;;;19.60;94.90;;;;;;5075759;28;20041;-74
2023/07/21 06:52:39;;;;;;;1999.90;999.90;;;19.60;93.60;;;;;;5075172;28;20036;-73
2023/07/21 06:55:06;;;;;;;1999.90;999.90;;;19.90;94.00;;;;;;5075888;28;20108;-74
2023/07/21 06:57:31;;;;;;;1999.90;999.90;;;20.20;93.30;;;;;;5071797;28;20033;-76
2023/07/21 06:59:57;;;;;;;1999.90;999.90;;;20.30;92.30;;;;;;5062814;28;20411;-72
2023/07/21 07:02:22;;;;;;;1999.90;999.90;;;20.50;91.20;;;;;;5060460;28;20037;-72
2023/07/21 07:04:48;;;;;;;1999.90;999.90;;;20.40;92.30;;;;;;5079066;28;20055;-73
2023/07/21 07:07:15;;;;;;;1999.90;999.90;;;20.40;92.20;;;;;;5077502;28;20072;-72
2023/07/21 07:09:41;;;;;;;1999.90;999.90;;;20.40;91.80;;;;;;5067366;28;20028;-73
2023/07/21 07:12:08;;;;;;;1999.90;999.90;;;20.30;92.00;;;;;;5061031;28;20041;-72
2023/07/21 07:14:34;;;;;;;1999.90;999.90;;;20.40;92.60;;;;;;5054097;28;20033;-73
2023/07/21 07:16:59;;;;;;;1999.90;999.90;;;20.30;92.00;;;;;;5055590;28;20399;-72
2023/07/21 07:19:25;;;;;;;1999.90;999.90;;;20.40;91.50;;;;;;5055659;28;20549;-73
2023/07/21 07:21:50;;;;;;;1999.90;999.90;;;20.40;91.50;;;;;;5067115;28;20044;-72
2023/07/21 07:24:16;;;;;;;1999.90;999.90;;;20.30;92.50;;;;;;5056009;28;20033;-73
2023/07/21 07:26:41;;;;;;;1999.90;999.90;;;20.20;91.60;;;;;;5054687;28;20112;-72
2023/07/21 07:29:07;;;;;;;1999.90;999.90;;;20.20;92.40;;;;;;5076049;28;20490;-73
2023/07/21 07:31:33;;;;;;;1999.90;999.90;;;20.10;91.80;;;;;;5061453;28;20095;-72
2023/07/21 07:33:58;;;;;;;1999.90;999.90;;;20.10;92.60;;;;;;5054884;28;20069;-73
2023/07/21 07:36:24;;;;;;;1999.90;999.90;;;20.20;91.80;;;;;;5053504;28;20067;-73
2023/07/21 07:38:50;;;;;;;1999.90;999.90;;;20.30;92.00;;;;;;5070076;28;20053;-73
2023/07/21 07:41:18;;;;;;;1999.90;999.90;;;20.40;91.20;;;;;;5074610;28;20029;-73
2023/07/21 07:43:45;;;;;;;1999.90;999.90;;;20.40;91.40;;;;;;5069606;28;20038;-73
2023/07/21 07:46:11;;;;;;;1999.90;999.90;;;20.50;90.90;;;;;;5057595;28;20045;-73
2023/07/21 07:48:36;;;;;;;1999.90;999.90;;;20.50;92.50;;;;;;5037686;28;20084;-73
2023/07/21 07:51:07;;;;;;;1999.90;999.90;;;20.30;91.80;;;;;;5053314;28;20537;-73
2023/07/21 07:53:34;;;;;;;1999.90;999.90;;;20.30;91.40;;;;;;5071369;28;20496;-73
2023/07/21 07:55:59;;;;;;;1999.90;999.90;;;20.60;91.50;;;;;;5067791;28;20073;-73
2023/07/21 07:58:25;;;;;;;1999.90;999.90;;;20.70;90.40;;;;;;5066071;28;20735;-73
2023/07/21 08:00:55;;;;;;;1999.90;999.90;;;20.70;91.70;;;;;;5074899;28;20033;-72
2023/07/21 08:03:20;;;;;;;1999.90;999.90;;;20.90;91.00;;;;;;5078690;28;20118;-70
2023/07/21 08:05:47;;;;;;;1999.90;999.90;;;21.20;90.90;;;;;;5073852;28;20160;-70
2023/07/21 08:08:13;;;;;;;1999.90;999.90;;;21.30;90.50;;;;;;5053954;28;20041;-71
2023/07/21 08:10:39;;;;;;;1999.90;999.90;;;21.50;90.80;;;;;;5053240;28;20053;-72
2023/07/21 08:13:05;;;;;;;1999.90;999.90;;;21.80;90.00;;;;;;5053955;28;20083;-71
2023/07/21 08:15:30;;;;;;;1999.90;999.90;;;22.10;90.20;;;;;;5071685;28;20120;-72
2023/07/21 08:17:56;;;;;;;1999.90;999.90;;;22.40;90.00;;;;;;5074623;28;20131;-70
2023/07/21 08:20:22;;;;;;;1999.90;999.90;;;22.60;86.20;;;;;;5074372;28;20040;-72
2023/07/21 08:22:50;;;;;;;1999.90;999.90;;;22.90;83.60;;;;;;5071738;28;20044;-72
2023/07/21 08:25:16;;;;;;;1999.90;999.90;;;22.80;84.80;;;;;;5074206;28;20033;-72
2023/07/21 08:27:41;;;;;;;1999.90;999.90;;;23.00;86.50;;;;;;5056715;28;20036;-72
2023/07/21 08:30:10;;;;;;;1999.90;999.90;;;23.10;82.10;;;;;;5057080;28;20045;-72
2023/07/21 08:32:37;;;;;;;1999.90;999.90;;;23.00;83.30;;;;;;5053782;28;20406;-72
2023/07/21 08:35:04;;;;;;;1999.90;999.90;;;22.90;84.90;;;;;;5055304;28;20116;-72
2023/07/21 08:37:30;;;;;;;1999.90;999.90;;;22.60;83.50;;;;;;5054067;28;20092;-72
2023/07/21 08:39:56;;;;;;;1999.90;999.90;;;22.50;84.10;;;;;;5054091;28;20671;-72
2023/07/21 08:42:24;;;;;;;1999.90;999.90;;;22.50;86.60;;;;;;5053894;28;20037;-73
2023/07/21 08:44:54;;;;;;;1999.90;999.90;;;22.50;84.90;;;;;;5037590;28;20033;-72
2023/07/21 08:47:21;;;;;;;1999.90;999.90;;;22.40;85.10;;;;;;5053998;28;20038;-73
2023/07/21 08:49:47;;;;;;;1999.90;999.90;;;22.40;84.80;;;;;;5093967;28;20032;-72
2023/07/21 08:52:13;;;;;;;1999.90;999.90;;;22.40;83.60;;;;;;5093679;28;20029;-71
2023/07/21 08:54:39;;;;;;;1999.90;999.90;;;22.30;85.70;;;;;;5087843;28;20033;-70
2023/07/21 08:57:04;;;;;;;1999.90;999.90;;;22.30;84.60;;;;;;5053634;28;20483;-73
2023/07/21 08:59:30;;;;;;;1999.90;999.90;;;22.10;84.10;;;;;;5053861;28;20804;-73
2023/07/21 09:01:55;;;;;;;1999.90;999.90;;;21.80;85.70;;;;;;5053137;28;20113;-72
2023/07/21 09:04:23;;;;;;;1999.90;999.90;;;22.00;85.30;;;;;;5056091;28;20124;-72
2023/07/21 09:06:53;;;;;;;1999.90;999.90;;;22.10;85.20;;;;;;5055065;28;20044;-72
2023/07/21 09:09:20;;;;;;;1999.90;999.90;;;22.20;86.30;;;;;;5074097;28;20119;-72
2023/07/21 09:11:47;;;;;;;1999.90;999.90;;;22.60;82.80;;;;;;5072458;28;20490;-72
2023/07/21 09:14:16;;;;;;;1999.90;999.90;;;22.80;83.00;;;;;;5081035;28;20038;-72
2023/07/21 09:16:45;;;;;;;1999.90;999.90;;;22.90;83.40;;;;;;5069822;28;20055;-72
2023/07/21 09:19:11;;;;;;;1999.90;999.90;;;23.20;83.00;;;;;;5086599;28;20045;-71
2023/07/21 09:21:37;;;;;;;1999.90;999.90;;;23.30;83.10;;;;;;5088446;28;20033;-72
2023/07/21 09:24:07;;;;;;;1999.90;999.90;;;23.30;83.60;;;;;;5089234;28;20036;-72
2023/07/21 09:26:32;;;;;;;1999.90;999.90;;;23.60;83.50;;;;;;5080828;28;20490;-72
2023/07/21 09:28:58;;;;;;;1999.90;999.90;;;23.70;81.70;;;;;;5085770;28;20049;-72
2023/07/21 09:31:33;;;;;;;1999.90;999.90;;;23.90;81.00;;;;;;5045768;28;20086;-72
2023/07/21 09:34:12;;;;;;;1999.90;999.90;;;24.00;80.70;;;;;;5077295;28;20056;-71
2023/07/21 09:36:44;;;;;;;1999.90;999.90;;;23.80;80.90;;;;;;5073997;28;20033;-72
2023/07/21 09:39:14;;;;;;;1999.90;999.90;;;23.60;79.70;;;;;;5061848;28;20052;-72
2023/07/21 09:41:40;;;;;;;1999.90;999.90;;;24.00;81.10;;;;;;5062501;28;20025;-72
2023/07/21 09:44:06;;;;;;;1999.90;999.90;;;24.60;78.50;;;;;;5077097;28;20032;-72
2023/07/21 09:46:33;;;;;;;1999.90;999.90;;;25.10;75.40;;;;;;5076873;28;20071;-72
2023/07/21 09:48:58;;;;;;;1999.90;999.90;;;25.40;76.70;;;;;;5072127;28;20033;-72
2023/07/21 09:51:26;;;;;;;1999.90;999.90;;;25.40;75.30;;;;;;5054513;28;20386;-74
2023/07/21 09:53:53;;;;;;;1999.90;999.90;;;25.10;76.80;;;;;;5056795;28;20753;-73
2023/07/21 09:56:21;;;;;;;1999.90;999.90;;;24.90;75.10;;;;;;5056783;28;20034;-71
2023/07/21 09:59:09;;;;;;;1999.90;999.90;;;24.80;76.20;;;;;;5072448;28;20060;-72
2023/07/21 10:01:35;;;;;;;1999.90;999.90;;;25.20;76.10;;;;;;5056333;28;20534;-71
2023/07/21 10:04:02;;;;;;;1999.90;999.90;;;25.30;76.40;;;;;;5056665;28;20052;-71
2023/07/21 10:06:32;;;;;;;1999.90;999.90;;;25.40;74.60;;;;;;5056467;28;20029;-71
2023/07/21 10:08:58;;;;;;;1999.90;999.90;;;25.60;73.60;;;;;;5060945;28;20037;-71
2023/07/21 10:11:24;;;;;;;1999.90;999.90;;;25.20;72.80;;;;;;5075018;28;20128;-71
2023/07/21 10:13:49;;;;;;;1999.90;999.90;;;25.10;73.70;;;;;;5056235;28;20038;-71
2023/07/21 10:16:20;;;;;;;1999.90;999.90;;;25.00;75.20;;;;;;5056018;28;20483;-71
2023/07/21 10:19:08;;;;;;;1999.90;999.90;;;25.10;73.90;;;;;;5058467;28;20042;-70
2023/07/21 10:21:53;;;;;;;1999.90;999.90;;;25.50;71.90;;;;;;5075914;28;20055;-70
2023/07/21 10:24:26;;;;;;;1999.90;999.90;;;25.60;72.40;;;;;;5075431;28;20044;-71
2023/07/21 10:27:20;;;;;;;1999.90;999.90;;;25.80;71.70;;;;;;5077001;28;20037;-70
2023/07/21 10:29:46;;;;;;;1999.90;999.90;;;26.10;72.10;;;;;;5082551;28;20453;-70
2023/07/21 10:32:12;;;;;;;1999.90;999.90;;;26.20;70.20;;;;;;5095955;28;20036;-70
2023/07/21 10:34:42;;;;;;;1999.90;999.90;;;25.90;70.20;;;;;;5096218;28;20416;-70
2023/07/21 10:37:09;;;;;;;1999.90;999.90;;;26.20;69.80;;;;;;5077993;28;20024;-70
2023/07/21 10:39:37;;;;;;;1999.90;999.90;;;26.30;69.90;;;;;;5062007;28;20124;-72
2023/07/21 10:42:06;;;;;;;1999.90;999.90;;;26.30;68.20;;;;;;5055420;28;20506;-73
2023/07/21 10:44:45;;;;;;;1999.90;999.90;;;26.40;70.10;;;;;;5056146;28;20036;-73
2023/07/21 10:47:13;;;;;;;1999.90;999.90;;;26.70;69.00;;;;;;5055029;28;20095;-73
2023/07/21 10:49:39;;;;;;;1999.90;999.90;;;26.50;72.60;;;;;;5068362;28;20528;-70
2023/07/21 10:52:04;;;;;;;1999.90;999.90;;;26.40;72.60;;;;;;5069985;28;20033;-70
2023/07/21 10:54:30;;;;;;;1999.90;999.90;;;26.50;68.40;;;;;;5062273;28;20091;-72
2023/07/21 10:56:58;;;;;;;1999.90;999.90;;;26.60;69.00;;;;;;5063929;28;20112;-73
2023/07/21 10:59:24;;;;;;;1999.90;999.90;;;27.20;68.10;;;;;;5062502;28;20045;-72
2023/07/21 11:01:53;;;;;;;1999.90;999.90;;;27.70;66.20;;;;;;5063931;28;20025;-70
2023/07/21 11:04:21;;;;;;;1999.90;999.90;;;27.70;65.00;;;;;;5065555;28;20080;-70
2023/07/21 11:06:50;;;;;;;1999.90;999.90;;;27.90;65.40;;;;;;5062421;28;20108;-70
2023/07/21 11:09:17;;;;;;;1999.90;999.90;;;27.80;65.10;;;;;;5042519;28;20181;-70
2023/07/21 11:11:45;;;;;;;1999.90;999.90;;;27.60;66.20;;;;;;5071164;28;20120;-70
2023/07/21 11:14:24;;;;;;;1999.90;999.90;;;27.70;67.80;;;;;;5067524;28;20648;-70
2023/07/21 11:16:53;;;;;;;1999.90;999.90;;;28.20;65.60;;;;;;5075622;28;20053;-71
2023/07/21 11:19:20;;;;;;;1999.90;999.90;;;28.30;64.70;;;;;;5075662;28;20048;-70
2023/07/21 11:21:46;;;;;;;1999.90;999.90;;;28.80;63.20;;;;;;5072802;28;20052;-71
2023/07/21 11:24:19;;;;;;;1999.90;999.90;;;29.60;60.90;;;;;;5068005;28;20033;-71
2023/07/21 11:26:46;;;;;;;1999.90;999.90;;;30.10;59.40;;;;;;5066838;28;20118;-70
2023/07/21 11:29:12;;;;;;;1999.90;999.90;;;30.10;58.80;;;;;;5054756;28;20068;-73
2023/07/21 11:31:38;;;;;;;1999.90;999.90;;;30.30;63.00;;;;;;5060112;28;20029;-71
2023/07/21 11:34:18;;;;;;;1999.90;999.90;;;29.90;57.30;;;;;;5052389;28;20586;-70
2023/07/21 11:36:45;;;;;;;1999.90;999.90;;;29.40;60.70;;;;;;5072439;28;20431;-73
2023/07/21 11:39:11;;;;;;;1999.90;999.90;;;29.10;58.80;;;;;;5064499;28;20144;-73
2023/07/21 11:41:39;;;;;;;1999.90;999.90;;;29.20;58.50;;;;;;5057513;28;20487;-73
2023/07/21 11:44:10;;;;;;;1999.90;999.90;;;29.30;62.10;;;;;;5046230;28;20084;-71
2023/07/21 11:46:37;;;;;;;1999.90;999.90;;;29.20;58.40;;;;;;5068485;28;20087;-71
2023/07/21 11:49:14;;;;;;;1999.90;999.90;;;28.50;58.50;;;;;;5074408;28;20196;-72
2023/07/21 11:52:03;;;;;;;1999.90;999.90;;;28.20;60.70;;;;;;5058107;28;20083;-71
2023/07/21 11:54:30;;;;;;;1999.90;999.90;;;27.70;61.00;;;;;;5054116;28;20494;-71
2023/07/21 11:56:57;;;;;;;1999.90;999.90;;;27.40;61.60;;;;;;5056196;28;20048;-71
2023/07/21 11:59:24;;;;;;;1999.90;999.90;;;26.80;62.80;;;;;;5055010;28;20537;-71
2023/07/21 12:01:50;;;;;;;1999.90;999.90;;;26.50;62.90;;;;;;5053301;28;20041;-71